createdAt,value
2022-11-24T00:02:22.240Z,100048.25
2022-11-24T00:05:25.119Z,100050.88
2022-11-24T00:08:27.903Z,100049.88
2022-11-24T00:11:34.106Z,100052.28
2022-11-24T00:14:36.900Z,100044.75
2022-11-24T00:17:39.662Z,100054.50
2022-11-24T00:20:42.436Z,100051.28
2022-11-24T00:23:45.927Z,100056.53
2022-11-24T00:26:50.128Z,100062.78
2022-11-24T00:29:52.871Z,100064.19
2022-11-24T00:32:55.659Z,100067.69
2022-11-24T00:35:58.581Z,100075.16
2022-11-24T00:39:03.340Z,100053.13
2022-11-24T00:42:07.578Z,100066.78
2022-11-24T00:45:14.070Z,100076.44
2022-11-24T00:48:17.178Z,100067.59
2022-11-24T00:51:21.485Z,100072.91
2022-11-24T00:54:24.475Z,100075.59
2022-11-24T00:57:28.636Z,100084.94
2022-11-24T01:00:31.404Z,100085.66
2022-11-24T01:03:34.830Z,100089.25
2022-11-24T01:06:37.724Z,100088.19
2022-11-24T01:09:43.139Z,100091.13
2022-11-24T01:12:47.801Z,100098.16
2022-11-24T01:15:50.683Z,100104.09
2022-11-24T01:18:53.956Z,100102.47
2022-11-24T01:21:56.771Z,100102.66
2022-11-24T01:24:59.559Z,100112.25
2022-11-24T01:28:03.739Z,100110.47
2022-11-24T01:31:08.725Z,100099.88
2022-11-24T01:34:12.943Z,100108.78
2022-11-24T01:37:16.061Z,100102.66
2022-11-24T01:40:18.943Z,100113.41
2022-11-24T01:43:23.564Z,100102.88
2022-11-24T01:46:31.550Z,100108.06
2022-11-24T01:49:40.990Z,100107.22
2022-11-24T01:52:48.315Z,100111.59
2022-11-24T01:55:53.526Z,100107.94
2022-11-24T01:59:02.042Z,100111.59
2022-11-24T02:02:05.261Z,100113.19
2022-11-24T02:05:13.827Z,100116.59
2022-11-24T02:08:23.956Z,100116.25
2022-11-24T02:11:30.358Z,100131.91
2022-11-24T02:14:36.315Z,100131.28
2022-11-24T02:17:39.103Z,100130.22
2022-11-24T02:20:42.062Z,100136.34
2022-11-24T02:23:52.470Z,100132.06
2022-11-24T02:26:56.831Z,100132.97
2022-11-24T02:29:59.970Z,100132.06
2022-11-24T02:33:03.337Z,100125.72
2022-11-24T02:36:06.590Z,100132.69
2022-11-24T02:39:13.097Z,100139.25
2022-11-24T02:42:17.369Z,100131.72
2022-11-24T02:45:20.353Z,100129.91
2022-11-24T02:48:23.167Z,100136.91
2022-11-24T02:51:26.022Z,100144.09
2022-11-24T02:54:28.820Z,100128.28
2022-11-24T02:57:33.267Z,100134.69
2022-11-24T03:00:36.030Z,100141.47
2022-11-24T03:03:39.268Z,100144.97
2022-11-24T03:06:43.274Z,100143.53
2022-11-24T03:09:46.123Z,100145.16
2022-11-24T03:12:50.268Z,100149.78
2022-11-24T03:15:53.057Z,100156.00
2022-11-24T03:18:55.864Z,100153.34
2022-11-24T03:21:58.672Z,100167.31
2022-11-24T03:25:01.539Z,100152.69
2022-11-24T03:28:05.888Z,100160.53
2022-11-24T03:31:09.675Z,100159.88
2022-11-24T03:34:12.588Z,100157.38
2022-11-24T03:37:15.719Z,100160.94
2022-11-24T03:40:18.999Z,100169.63
2022-11-24T03:43:23.357Z,100172.22
2022-11-24T03:46:26.176Z,100183.72
2022-11-24T03:49:29.252Z,100176.63
2022-11-24T03:52:32.018Z,100193.13
2022-11-24T03:55:34.842Z,100199.13
2022-11-24T03:58:39.009Z,100194.66
2022-11-24T04:01:41.843Z,100196.41
2022-11-24T04:04:50.497Z,100195.06
2022-11-24T04:07:56.431Z,100198.56
2022-11-24T04:10:59.228Z,100204.41
2022-11-24T04:14:02.518Z,100208.84
2022-11-24T04:17:05.864Z,100208.63
2022-11-24T04:20:09.846Z,100212.09
2022-11-24T04:23:12.616Z,100219.09
2022-11-24T04:26:15.341Z,100222.31
2022-11-24T04:29:19.326Z,100226.66
2022-11-24T04:32:21.971Z,100226.53
2022-11-24T04:35:24.944Z,100228.28
2022-11-24T04:39:19.780Z,100232.59
2022-11-24T04:41:50.316Z,100236.97
2022-11-24T04:44:54.566Z,100239.63
2022-11-24T04:47:57.314Z,100236.00
2022-11-24T04:50:59.990Z,100244.81
2022-11-24T04:54:02.644Z,100255.25
2022-11-24T04:57:05.506Z,100256.88
2022-11-24T05:00:11.379Z,100250.47
2022-11-24T05:03:14.082Z,100253.22
2022-11-24T05:06:16.750Z,100250.47
2022-11-24T05:09:19.374Z,100251.31
2022-11-24T05:12:22.009Z,100259.31
2022-11-24T05:15:26.720Z,100260.16
2022-11-24T05:18:29.869Z,100262.72
2022-11-24T05:21:32.529Z,100268.72
2022-11-24T05:24:35.605Z,100267.78
2022-11-24T05:27:38.626Z,100273.97
2022-11-24T05:30:42.672Z,100272.78
2022-11-24T05:33:45.636Z,100272.63
2022-11-24T05:36:54.097Z,100275.31
2022-11-24T05:39:56.849Z,100276.97
2022-11-24T05:43:00.501Z,100280.91
2022-11-24T05:46:04.589Z,100281.38
2022-11-24T05:49:07.273Z,100286.59
2022-11-24T05:52:10.370Z,100285.75
2022-11-24T05:55:14.974Z,100290.16
2022-11-24T05:58:17.887Z,100294.56
2022-11-24T06:01:22.056Z,100298.00
2022-11-24T06:04:24.773Z,100293.66
2022-11-24T06:07:27.577Z,100299.06
2022-11-24T06:10:30.805Z,100310.19
2022-11-24T06:13:33.556Z,100313.47
2022-11-24T06:16:37.945Z,100318.91
2022-11-24T06:19:42.242Z,100322.16
2022-11-24T06:22:45.067Z,100315.91
2022-11-24T06:25:51.465Z,100315.16
2022-11-24T06:28:54.468Z,100319.47
2022-11-24T06:31:58.825Z,100309.63
2022-11-24T06:35:01.588Z,100317.19
2022-11-24T06:38:05.799Z,100332.81
2022-11-24T06:41:11.910Z,100339.84
2022-11-24T06:44:14.625Z,100347.13
2022-11-24T06:47:18.686Z,100352.19
2022-11-24T06:50:21.407Z,100350.25
2022-11-24T06:53:24.066Z,100364.25
2022-11-24T06:56:26.853Z,100359.75
2022-11-24T06:59:29.589Z,100358.88
2022-11-24T07:02:33.718Z,100368.66
2022-11-24T07:05:36.445Z,100359.09
2022-11-24T07:08:39.152Z,100363.50
2022-11-24T07:11:42.576Z,100368.94
2022-11-24T07:14:45.333Z,100373.22
2022-11-24T07:17:49.420Z,100376.53
2022-11-24T07:20:52.166Z,100378.16
2022-11-24T07:23:56.448Z,100384.41
2022-11-24T07:26:59.193Z,100383.59
2022-11-24T07:30:01.891Z,100390.56
2022-11-24T07:33:05.938Z,100389.53
2022-11-24T07:36:10.121Z,100395.63
2022-11-24T07:39:12.769Z,100405.16
2022-11-24T07:42:15.386Z,100405.31
2022-11-24T07:45:18.182Z,100411.53
2022-11-24T07:48:22.145Z,100418.44
2022-11-24T07:51:24.781Z,100413.38
2022-11-24T07:54:28.571Z,100418.66
2022-11-24T07:57:31.692Z,100417.88
2022-11-24T08:00:34.311Z,100434.84
2022-11-24T08:03:38.600Z,100433.63
2022-11-24T08:06:46.014Z,100434.41
2022-11-24T08:09:52.047Z,100437.72
2022-11-24T08:12:54.714Z,100439.31
2022-11-24T08:15:57.325Z,100432.16
2022-11-24T08:19:01.398Z,100451.00
2022-11-24T08:22:04.012Z,100457.00
2022-11-24T08:25:07.501Z,100454.19
2022-11-24T08:28:10.152Z,100461.75
2022-11-24T08:31:14.758Z,100458.91
2022-11-24T08:34:18.722Z,100469.34
2022-11-24T08:37:21.466Z,100471.94
2022-11-24T08:40:24.236Z,100468.25
2022-11-24T08:43:27.080Z,100474.31
2022-11-24T08:46:29.813Z,100484.97
2022-11-24T08:49:33.832Z,100481.91
2022-11-24T08:52:36.820Z,100481.31
2022-11-24T08:55:39.506Z,100480.06
2022-11-24T08:58:42.943Z,100489.63
2022-11-24T09:01:45.685Z,100489.63
2022-11-24T09:04:49.822Z,100492.06
2022-11-24T09:07:52.680Z,100495.31
2022-11-24T09:11:00.625Z,100503.22
2022-11-24T09:14:03.269Z,100503.69
2022-11-24T09:17:05.963Z,100503.53
2022-11-24T09:20:10.531Z,100507.59
2022-11-24T09:23:13.189Z,100510.72
2022-11-24T09:26:17.701Z,100510.31
2022-11-24T09:29:20.369Z,100516.13
2022-11-24T09:32:22.967Z,100518.53
2022-11-24T09:35:27.015Z,100519.34
2022-11-24T09:38:29.826Z,100517.72
2022-11-24T09:41:40.198Z,100522.63
2022-11-24T09:45:00.972Z,100525.38
2022-11-24T09:48:09.485Z,100526.34
2022-11-24T09:51:16.500Z,100528.97
2022-11-24T09:54:22.409Z,100527.16
2022-11-24T09:57:34.248Z,100519.78
2022-11-24T10:00:40.449Z,100528.56
2022-11-24T10:03:45.286Z,100535.66
2022-11-24T10:07:01.328Z,100535.41
2022-11-24T10:10:12.757Z,100540.09
2022-11-24T10:13:31.172Z,100542.97
2022-11-24T10:16:48.207Z,100537.13
2022-11-24T10:19:57.385Z,100532.69
2022-11-24T10:23:19.609Z,100546.25
2022-11-24T10:26:32.967Z,100549.09
2022-11-24T10:29:40.949Z,100545.44
2022-11-24T10:32:47.447Z,100548.59
2022-11-24T10:35:54.813Z,100550.56
2022-11-24T10:39:06.630Z,100557.59
2022-11-24T10:42:16.706Z,100557.59
2022-11-24T10:45:22.141Z,100555.50
2022-11-24T10:48:27.097Z,100561.66
2022-11-24T10:51:43.315Z,100551.53
2022-11-24T10:54:58.664Z,100556.47
2022-11-24T10:58:16.520Z,100556.16
2022-11-24T11:01:29.947Z,100562.03
2022-11-24T11:04:34.500Z,100563.38
2022-11-24T11:07:37.212Z,100558.53
2022-11-24T11:10:41.695Z,100569.22
2022-11-24T11:14:01.685Z,100568.69
2022-11-24T11:17:32.417Z,100575.03
2022-11-24T11:20:36.605Z,100572.13
2022-11-24T11:23:41.326Z,100567.78
2022-11-24T11:26:45.861Z,100573.56
2022-11-24T11:36:48.591Z,100586.41
2022-11-24T11:39:53.216Z,100587.63
2022-11-24T11:43:03.796Z,100584.97
2022-11-24T11:46:13.022Z,100591.84
2022-11-24T11:49:15.857Z,100602.09
2022-11-24T11:52:44.640Z,100595.94
2022-11-24T11:55:58.617Z,100594.47
2022-11-24T11:59:36.921Z,100609.03
2022-11-24T12:02:59.383Z,100605.69
2022-11-24T12:06:15.877Z,100604.66
2022-11-24T12:09:30.253Z,100600.22
2022-11-24T12:12:51.443Z,100609.28
2022-11-24T12:15:57.343Z,100611.47
2022-11-24T12:19:14.911Z,100615.44
2022-11-24T12:22:25.601Z,100614.50
2022-11-24T12:25:32.020Z,100617.16
2022-11-24T12:28:46.568Z,100623.59
2022-11-24T12:31:59.086Z,100624.13
2022-11-24T12:35:09.832Z,100620.50
2022-11-24T12:38:27.125Z,100629.22
2022-11-24T12:41:46.075Z,100628.28
2022-11-24T12:45:20.058Z,100636.13
2022-11-24T12:48:38.332Z,100643.31
2022-11-24T12:51:43.853Z,100640.97
2022-11-24T12:54:46.521Z,100643.94
2022-11-24T12:57:56.575Z,100648.88
2022-11-24T13:01:16.786Z,100654.09
2022-11-24T13:04:30.590Z,100654.56
2022-11-24T13:07:40.685Z,100658.25
2022-11-24T13:10:59.077Z,100657.19
2022-11-24T13:14:06.163Z,100669.47
2022-11-24T13:17:34.356Z,100675.41
2022-11-24T13:20:43.648Z,100686.59
2022-11-24T13:23:58.315Z,100675.31
2022-11-24T13:27:27.107Z,100684.88
2022-11-24T13:30:59.102Z,100688.94
2022-11-24T13:34:01.775Z,100684.44
2022-11-24T13:37:31.407Z,100678.34
2022-11-24T13:40:49.845Z,100684.13
2022-11-24T13:44:25.520Z,100690.91
2022-11-24T13:47:37.075Z,100699.00
2022-11-24T13:51:14.704Z,100700.72
2022-11-24T13:54:18.908Z,100701.59
2022-11-24T13:57:35.186Z,100706.81
2022-11-24T14:01:01.914Z,100706.81
2022-11-24T14:04:43.235Z,100710.50
2022-11-24T14:07:42.324Z,100713.16
2022-11-24T14:10:47.018Z,100710.41
2022-11-24T14:13:49.905Z,100724.72
2022-11-24T14:17:07.332Z,100728.38
2022-11-24T14:20:23.103Z,100736.25
2022-11-24T14:23:25.869Z,100730.16
2022-11-24T14:26:35.244Z,100726.75
2022-11-24T14:29:37.852Z,100741.88
2022-11-24T14:32:40.792Z,100747.19
2022-11-24T14:35:46.205Z,100751.63
2022-11-24T14:38:48.902Z,100751.97
2022-11-24T14:41:56.557Z,100751.88
2022-11-24T14:45:02.837Z,100750.22
2022-11-24T14:48:05.687Z,100757.56
2022-11-24T14:51:17.406Z,100760.56
2022-11-24T14:54:22.197Z,100765.38
2022-11-24T14:57:31.940Z,100768.31
2022-11-24T15:00:35.018Z,100775.63
2022-11-24T15:03:38.370Z,100772.41
2022-11-24T15:06:42.503Z,100773.56
2022-11-24T15:09:52.619Z,100781.06
2022-11-24T15:12:59.517Z,100777.94
2022-11-24T15:16:04.593Z,100779.88
2022-11-24T15:19:15.624Z,100789.63
2022-11-24T15:22:34.013Z,100781.69
2022-11-24T15:25:36.805Z,100784.63
2022-11-24T15:28:41.252Z,100788.50
2022-11-24T15:31:47.884Z,100795.72
2022-11-24T15:34:53.556Z,100799.44
2022-11-24T15:37:56.185Z,100804.81
2022-11-24T15:41:00.099Z,100805.03
2022-11-24T15:44:04.165Z,100803.47
2022-11-24T15:47:06.859Z,100806.44
2022-11-24T15:50:10.580Z,100795.28
2022-11-24T15:53:18.235Z,100792.91
2022-11-24T15:56:25.334Z,100787.69
2022-11-24T15:59:31.142Z,100796.50
2022-11-24T16:02:33.867Z,100805.41
2022-11-24T16:05:38.423Z,100810.91
2022-11-24T16:08:41.035Z,100816.91
2022-11-24T16:11:44.199Z,100808.88
2022-11-24T16:14:48.147Z,100818.31
2022-11-24T16:17:50.832Z,100826.31
2022-11-24T16:20:53.447Z,100815.03
2022-11-24T16:23:56.224Z,100821.88
2022-11-24T16:26:58.830Z,100821.88
2022-11-24T16:30:02.944Z,100813.34
2022-11-24T16:33:06.592Z,100820.28
2022-11-24T16:36:10.079Z,100810.09
2022-11-24T16:39:12.730Z,100819.97
2022-11-24T16:42:15.854Z,100820.84
2022-11-24T16:45:19.987Z,100830.63
2022-11-24T16:48:22.608Z,100831.81
2022-11-24T16:51:28.706Z,100827.72
2022-11-24T16:54:34.378Z,100825.22
2022-11-24T16:57:37.668Z,100834.97
2022-11-24T17:00:42.171Z,100839.28
2022-11-24T17:03:44.828Z,100840.09
2022-11-24T17:06:47.435Z,100835.09
2022-11-24T17:09:50.169Z,100834.31
2022-11-24T17:12:52.745Z,100831.06
2022-11-24T17:15:56.696Z,100835.38
2022-11-24T17:18:59.769Z,100837.34
2022-11-24T17:22:02.552Z,100836.41
2022-11-24T17:25:06.066Z,100832.84
2022-11-24T17:28:08.755Z,100840.66
2022-11-24T17:31:18.796Z,100845.88
2022-11-24T17:34:21.532Z,100842.34
2022-11-24T17:37:24.155Z,100840.59
2022-11-24T17:40:28.833Z,100850.28
2022-11-24T17:43:32.018Z,100858.34
2022-11-24T17:46:37.029Z,100861.97
2022-11-24T17:49:39.640Z,100866.44
2022-11-24T17:52:42.256Z,100874.38
2022-11-24T17:55:44.839Z,100877.81
2022-11-24T17:58:48.017Z,100886.09
2022-11-24T18:01:52.174Z,100879.03
2022-11-24T18:04:54.856Z,100889.59
2022-11-24T18:07:57.576Z,100890.78
2022-11-24T18:11:04.351Z,100890.81
2022-11-24T18:14:07.008Z,100893.69
2022-11-24T18:17:11.040Z,100899.84
2022-11-24T18:20:14.089Z,100904.28
2022-11-24T18:23:16.718Z,100900.88
2022-11-24T18:26:19.355Z,100907.09
2022-11-24T18:29:22.436Z,100909.00
2022-11-24T18:32:26.451Z,100912.44
2022-11-24T18:35:29.121Z,100912.38
2022-11-24T18:38:32.232Z,100906.25
2022-11-24T18:41:35.063Z,100914.44
2022-11-24T18:44:37.803Z,100912.53
2022-11-24T18:47:41.743Z,100915.16
2022-11-24T18:50:44.391Z,100916.91
2022-11-24T18:53:51.549Z,100914.19
2022-11-24T18:56:57.693Z,100916.00
2022-11-24T19:00:03.164Z,100917.03
2022-11-24T19:03:07.217Z,100922.31
2022-11-24T19:06:15.071Z,100930.13
2022-11-24T19:09:20.533Z,100917.97
2022-11-24T19:12:23.174Z,100927.97
2022-11-24T19:15:25.789Z,100933.19
2022-11-24T19:18:31.279Z,100930.03
2022-11-24T19:21:37.036Z,100927.53
2022-11-24T19:24:40.260Z,100938.94
2022-11-24T19:27:42.869Z,100938.34
2022-11-24T19:30:46.144Z,100937.53
2022-11-24T19:33:52.689Z,100940.25
2022-11-24T19:36:55.331Z,100929.84
2022-11-24T19:39:57.969Z,100940.56
2022-11-24T19:43:00.745Z,100938.31
2022-11-24T19:46:04.307Z,100948.72
2022-11-24T19:49:09.450Z,100943.56
2022-11-24T19:52:12.083Z,100952.44
2022-11-24T19:55:14.747Z,100959.44
2022-11-24T19:58:17.372Z,100955.00
2022-11-24T20:01:21.517Z,100957.00
2022-11-24T20:04:25.637Z,100960.31
2022-11-24T20:07:28.335Z,100956.78
2022-11-24T20:10:31.020Z,100967.94
2022-11-24T20:13:35.028Z,100968.94
2022-11-24T20:16:37.725Z,100966.50
2022-11-24T20:19:41.919Z,100974.22
2022-11-24T20:22:44.614Z,100972.53
2022-11-24T20:25:47.294Z,100974.31
2022-11-24T20:28:51.112Z,100967.19
2022-11-24T20:31:56.030Z,100972.50
2022-11-24T20:35:01.587Z,100977.72
2022-11-24T20:38:04.249Z,100970.13
2022-11-24T20:41:09.602Z,100988.69
2022-11-24T20:44:16.120Z,100980.72
2022-11-24T20:47:18.740Z,100985.81
2022-11-24T20:50:22.704Z,100994.00
2022-11-24T20:53:25.340Z,100993.94
2022-11-24T20:56:30.496Z,100990.41
2022-11-24T20:59:33.121Z,100996.38
2022-11-24T21:02:35.730Z,101002.59
2022-11-24T21:05:39.766Z,100997.22
2022-11-24T21:08:43.356Z,100999.09
2022-11-24T21:11:46.052Z,101000.84
2022-11-24T21:14:48.705Z,101009.59
2022-11-24T21:17:51.320Z,101008.00
2022-11-24T21:20:55.263Z,101013.13
2022-11-24T21:23:58.776Z,101021.19
2022-11-24T21:27:01.529Z,101014.31
2022-11-24T21:30:04.714Z,101012.53
2022-11-24T21:33:07.928Z,101015.03
2022-11-24T21:36:12.668Z,101009.91
2022-11-24T21:39:16.138Z,101014.13
2022-11-24T21:42:18.832Z,101007.25
2022-11-24T21:45:21.478Z,101011.34
2022-11-24T21:48:24.124Z,101020.13
2022-11-24T21:51:29.784Z,101021.09
2022-11-24T21:54:32.566Z,101018.53
2022-11-24T21:57:35.535Z,101026.50
2022-11-24T22:00:38.174Z,101027.22
2022-11-24T22:03:40.864Z,101029.00
2022-11-24T22:06:45.139Z,101030.72
2022-11-24T22:09:49.642Z,101041.34
2022-11-24T22:12:52.265Z,101043.22
2022-11-24T22:16:00.841Z,101043.09
2022-11-24T22:19:03.865Z,101047.63
2022-11-24T22:22:07.885Z,101046.63
2022-11-24T22:25:10.653Z,101049.31
2022-11-24T22:28:13.286Z,101044.91
2022-11-24T22:31:17.794Z,101052.63
2022-11-24T22:34:20.453Z,101047.94
2022-11-24T22:37:24.457Z,101052.34
2022-11-24T22:40:27.120Z,101052.16
2022-11-24T22:43:31.809Z,101048.44
2022-11-24T22:46:34.531Z,101041.47
2022-11-24T22:49:37.166Z,101040.41
2022-11-24T22:52:41.310Z,101050.72
2022-11-24T22:55:43.939Z,101043.47
2022-11-24T22:58:47.467Z,101039.84
2022-11-24T23:01:50.080Z,101034.66
2022-11-24T23:04:52.689Z,101041.66
2022-11-24T23:07:56.706Z,101037.06
2022-11-24T23:11:01.081Z,101039.75
2022-11-24T23:14:04.129Z,101027.66
2022-11-24T23:17:06.762Z,101036.56
2022-11-24T23:20:10.870Z,101039.06
2022-11-24T23:23:14.839Z,101032.88
2022-11-24T23:26:20.150Z,101032.06
2022-11-24T23:29:22.768Z,101024.25
2022-11-24T23:32:25.399Z,101021.59
2022-11-24T23:35:28.060Z,101017.38
2022-11-24T23:38:33.313Z,101019.25
2022-11-24T23:41:35.965Z,101005.97
2022-11-24T23:44:38.598Z,101007.84
2022-11-24T23:47:41.203Z,101013.13
2022-11-24T23:50:43.849Z,101008.56
2022-11-24T23:53:47.933Z,101014.75
2022-11-24T23:56:50.588Z,101005.19
2022-11-24T23:59:53.208Z,101001.66
